Main page
METAR-TAF:

METAR-TAF

Airports :

Nawabshah Airport

Nawabshah, Pakistan

latitude: 26-15N, longitude: 068-22E, elevation: 37 m

Current weather observation

The report was made 1 hour and 55 minutes ago, at 04:00 UTC
Wind 10 kt from the South
Temperature 30°C
Humidity 70%
Pressure 1001 hPa
Visibility: 5000 m
haze

METAR: OPNH 250400Z 18010KT 5000 HZ NSC 30/24 Q1001 NOSIG

Time: 10:55 (05:55 UTC)

Forecast

The report was made 1 hour and 55 minutes ago, at 04:00 UTC
Forecast valid from 25 at 06 UTC to 26 at 12 UTC
Wind 12 kt from the South
Visibility: 5000 m
haze

TAF: OPNH 250400Z 2506/2612 18012KT 5000 HZ NSC

Weather observations and forecasts of more than 4000 airports (METAR and TAF reports).

The available stations are represented by yellow and red dots on the map.

Hover mouse over dot to see the name of the station.

Then click to see weather observations and forecasts.

To change the map : click on the green buttons with a black cross to zoom in, on the green button with a dash to zoom out, or on the green arrows for adjacent maps.


METAR-TAF: